Time;durP1;ratioP1;P1;durP2;ratioP2;P2;SDS_P1;SDS_P2;PMS_P1;PMS_P2;Temp;Humidity;BMP_temperature;BMP_pressure;BME280_temperature;BME280_humidity;BME280_pressure;Samples;Min_cycle;Max_cycle;Signal;HPM_P1;HPM_P2
2022/02/27 00:01:31;;;;;;;13.68;5.00;;;15.20;64.90;;;;;;4085022;29;20062;-62
2022/02/27 00:03:54;;;;;;;12.55;4.70;;;15.20;64.60;;;;;;4082766;29;20052;-62
2022/02/27 00:06:18;;;;;;;10.50;4.47;;;15.30;64.60;;;;;;4083889;28;20047;-62
2022/02/27 00:08:44;;;;;;;11.18;5.00;;;15.30;64.40;;;;;;4083459;29;20128;-62
2022/02/27 00:11:07;;;;;;;7.72;4.90;;;15.30;64.50;;;;;;4083878;29;20051;-63
2022/02/27 00:13:29;;;;;;;11.77;4.75;;;15.20;64.40;;;;;;4083056;29;20052;-63
2022/02/27 00:15:51;;;;;;;9.13;4.57;;;15.20;64.50;;;;;;4081044;28;20051;-63
2022/02/27 00:18:13;;;;;;;13.43;5.15;;;15.20;64.10;;;;;;4083499;29;20063;-63
2022/02/27 00:20:35;;;;;;;9.07;5.03;;;15.20;63.60;;;;;;4083599;29;20066;-62
2022/02/27 00:22:59;;;;;;;11.15;5.38;;;15.10;63.40;;;;;;4083535;29;20055;-63
2022/02/27 00:25:21;;;;;;;10.15;5.03;;;15.10;63.40;;;;;;4087042;29;20119;-62
2022/02/27 00:27:44;;;;;;;10.98;5.07;;;15.10;63.50;;;;;;4083402;29;20100;-63
2022/02/27 00:30:08;;;;;;;11.98;4.68;;;15.00;63.50;;;;;;4068238;29;20052;-63
2022/02/27 00:32:30;;;;;;;8.85;4.85;;;15.00;63.70;;;;;;4080384;29;20512;-60
2022/02/27 00:34:52;;;;;;;10.93;4.68;;;15.00;63.80;;;;;;4073989;28;20488;-60
2022/02/27 00:37:14;;;;;;;11.38;4.80;;;15.00;63.60;;;;;;4068930;29;20140;-60
2022/02/27 00:39:38;;;;;;;10.95;4.72;;;15.00;63.80;;;;;;4065126;29;20055;-60
2022/02/27 00:42:01;;;;;;;10.88;5.78;;;14.90;63.80;;;;;;4077808;29;20066;-60
2022/02/27 00:44:23;;;;;;;14.98;5.13;;;14.90;64.00;;;;;;4084182;28;20481;-60
2022/02/27 00:46:46;;;;;;;10.85;5.30;;;14.90;64.10;;;;;;4064485;29;20059;-60
2022/02/27 00:49:08;;;;;;;9.82;4.68;;;14.90;64.10;;;;;;4058338;29;20078;-59
2022/02/27 00:51:31;;;;;;;9.18;4.70;;;14.80;63.90;;;;;;4052498;29;20143;-59
2022/02/27 00:53:56;;;;;;;13.07;5.50;;;14.80;64.70;;;;;;4056345;29;20087;-60
2022/02/27 00:56:20;;;;;;;13.82;5.78;;;14.80;64.10;;;;;;4060040;29;20139;-60
2022/02/27 00:58:46;;;;;;;15.07;5.30;;;14.80;64.40;;;;;;4034210;29;20053;-61
2022/02/27 01:01:08;;;;;;;6.20;4.63;;;14.80;64.70;;;;;;4035113;29;20079;-60
2022/02/27 01:03:30;;;;;;;17.38;5.45;;;14.70;64.50;;;;;;4049353;29;20115;-59
2022/02/27 01:05:53;;;;;;;10.43;5.70;;;14.70;64.40;;;;;;4048789;29;20064;-60
2022/02/27 01:08:15;;;;;;;7.97;5.15;;;14.70;64.40;;;;;;4049343;29;20549;-59
2022/02/27 01:10:37;;;;;;;15.73;6.05;;;14.70;64.30;;;;;;4052385;29;20052;-60
2022/02/27 01:13:01;;;;;;;8.80;5.10;;;14.70;64.10;;;;;;4064098;29;20071;-61
2022/02/27 01:15:23;;;;;;;8.15;4.80;;;14.70;63.60;;;;;;4063859;29;20052;-60
2022/02/27 01:17:46;;;;;;;8.60;5.07;;;14.70;64.80;;;;;;4050149;29;20053;-60
2022/02/27 01:20:09;;;;;;;12.25;5.43;;;14.70;65.50;;;;;;4064342;29;20721;-60
2022/02/27 01:22:32;;;;;;;11.85;4.57;;;14.70;65.60;;;;;;4047743;29;20048;-60
2022/02/27 01:24:56;;;;;;;15.43;4.72;;;14.80;65.50;;;;;;4049429;29;20067;-60
2022/02/27 01:27:18;;;;;;;9.82;4.80;;;14.90;65.30;;;;;;4049263;29;20070;-60
2022/02/27 01:29:42;;;;;;;10.65;5.47;;;14.90;65.30;;;;;;4057776;29;20502;-60
2022/02/27 01:32:05;;;;;;;12.73;5.10;;;14.90;65.00;;;;;;4064307;29;20055;-60
2022/02/27 01:34:32;;;;;;;10.80;4.80;;;14.90;64.90;;;;;;4049519;29;20516;-60
2022/02/27 01:36:56;;;;;;;9.52;5.20;;;14.90;64.70;;;;;;4064108;29;20111;-60
2022/02/27 01:39:19;;;;;;;11.23;4.70;;;14.90;64.70;;;;;;4058248;29;20044;-59
2022/02/27 01:41:41;;;;;;;11.80;5.10;;;15.00;64.60;;;;;;4048737;29;20442;-60
2022/02/27 01:44:03;;;;;;;14.60;5.53;;;14.90;64.40;;;;;;4038842;29;20589;-60
2022/02/27 01:46:27;;;;;;;8.00;4.47;;;14.90;64.30;;;;;;4048709;29;20413;-60
2022/02/27 01:48:49;;;;;;;10.95;4.93;;;14.90;64.20;;;;;;4049190;29;20052;-60
2022/02/27 01:51:12;;;;;;;15.93;5.30;;;14.90;64.10;;;;;;4049977;29;20059;-60
2022/02/27 01:53:34;;;;;;;10.00;4.40;;;14.90;64.10;;;;;;4063631;29;20056;-59
2022/02/27 01:55:57;;;;;;;9.50;4.72;;;14.80;63.90;;;;;;4064270;29;20136;-59
2022/02/27 01:58:19;;;;;;;14.27;4.93;;;14.80;63.90;;;;;;4048770;29;20054;-60
2022/02/27 02:00:42;;;;;;;8.10;4.22;;;14.80;66.00;;;;;;4047331;29;20100;-59
2022/02/27 02:03:05;;;;;;;10.05;4.47;;;14.90;65.50;;;;;;4048766;29;20052;-60
2022/02/27 02:05:28;;;;;;;12.43;5.65;;;15.00;65.10;;;;;;4048832;29;20420;-60
2022/02/27 02:07:50;;;;;;;8.82;4.40;;;15.00;64.60;;;;;;4048750;29;20056;-60
2022/02/27 02:10:14;;;;;;;10.73;5.15;;;15.10;64.20;;;;;;4049706;29;20128;-60
2022/02/27 02:12:42;;;;;;;12.43;4.45;;;15.10;64.10;;;;;;4047837;29;20108;-60
2022/02/27 02:15:06;;;;;;;11.73;5.57;;;15.10;64.00;;;;;;4049732;29;20052;-60
2022/02/27 02:17:31;;;;;;;8.50;4.60;;;15.20;63.80;;;;;;4049139;29;20082;-60
2022/02/27 02:19:55;;;;;;;12.23;4.85;;;15.20;63.40;;;;;;4062629;29;20395;-60
2022/02/27 02:22:18;;;;;;;7.13;4.38;;;15.10;63.40;;;;;;4046564;29;20055;-60
2022/02/27 02:24:40;;;;;;;8.93;4.97;;;15.10;63.60;;;;;;4048435;29;20052;-60
2022/02/27 02:27:05;;;;;;;9.95;4.22;;;15.10;64.00;;;;;;4047256;29;20060;-59
2022/02/27 02:29:27;;;;;;;12.93;5.30;;;15.20;64.10;;;;;;4048090;29;20049;-59
2022/02/27 02:31:51;;;;;;;10.68;5.38;;;15.30;63.90;;;;;;4046946;29;20525;-60
2022/02/27 02:34:15;;;;;;;9.98;4.78;;;15.30;63.70;;;;;;4033732;29;20057;-60
2022/02/27 02:36:40;;;;;;;9.65;4.93;;;15.40;63.40;;;;;;4048246;29;20108;-60
2022/02/27 02:39:06;;;;;;;8.65;4.50;;;15.40;63.00;;;;;;4048036;29;20052;-60
2022/02/27 02:41:29;;;;;;;9.65;5.13;;;15.50;62.90;;;;;;4039279;29;20132;-61
2022/02/27 02:43:53;;;;;;;10.98;4.88;;;15.40;62.80;;;;;;4046558;29;20151;-60
2022/02/27 02:46:15;;;;;;;10.43;4.90;;;15.40;62.90;;;;;;4046456;29;20052;-60
2022/02/27 02:48:38;;;;;;;12.52;5.20;;;15.40;62.90;;;;;;4048101;29;20139;-60
2022/02/27 02:51:18;;;;;;;9.82;4.90;;;15.40;62.80;;;;;;4048485;29;20052;-60
2022/02/27 02:53:42;;;;;;;10.82;4.85;;;15.40;63.00;;;;;;4048917;29;20110;-60
2022/02/27 02:56:05;;;;;;;11.63;5.38;;;15.40;62.90;;;;;;4048773;29;20067;-60
2022/02/27 02:58:27;;;;;;;10.73;5.53;;;15.40;62.90;;;;;;4050935;29;20060;-61
2022/02/27 03:00:49;;;;;;;9.68;4.82;;;15.40;63.10;;;;;;4047206;29;20055;-61
2022/02/27 03:03:11;;;;;;;14.88;5.82;;;15.40;63.20;;;;;;4047166;29;20490;-60
2022/02/27 03:05:34;;;;;;;11.05;5.22;;;15.40;63.90;;;;;;4047536;29;20048;-60
2022/02/27 03:07:56;;;;;;;10.25;5.32;;;15.50;62.90;;;;;;4055245;29;20052;-60
2022/02/27 03:10:19;;;;;;;11.27;5.78;;;15.60;62.70;;;;;;4062843;29;20490;-59
2022/02/27 03:12:41;;;;;;;8.75;5.38;;;15.70;62.20;;;;;;4063058;29;20134;-60
2022/02/27 03:15:05;;;;;;;10.57;5.47;;;15.70;62.00;;;;;;4062850;29;20091;-60
2022/02/27 03:17:27;;;;;;;11.27;5.45;;;15.70;61.80;;;;;;4057866;29;20414;-59
2022/02/27 03:19:49;;;;;;;10.40;5.10;;;15.80;61.60;;;;;;4047174;29;20136;-60
2022/02/27 03:22:12;;;;;;;10.27;5.30;;;15.70;61.60;;;;;;4062871;29;20056;-60
2022/02/27 03:24:34;;;;;;;12.55;5.57;;;15.70;61.60;;;;;;4062834;29;20063;-60
2022/02/27 03:26:57;;;;;;;18.00;5.68;;;15.60;61.70;;;;;;4060646;29;20056;-60
2022/02/27 03:29:20;;;;;;;9.15;5.35;;;15.60;61.90;;;;;;4062809;29;20054;-60
2022/02/27 03:31:42;;;;;;;10.15;4.82;;;15.50;61.90;;;;;;4062754;29;20417;-60
2022/02/27 03:34:04;;;;;;;12.15;5.50;;;15.50;62.10;;;;;;4062908;29;20048;-60
2022/02/27 03:36:27;;;;;;;15.02;5.60;;;15.40;62.20;;;;;;4062010;29;20055;-59
2022/02/27 03:38:49;;;;;;;10.05;5.35;;;15.40;62.50;;;;;;4062819;29;20060;-59
2022/02/27 03:41:11;;;;;;;12.88;5.55;;;15.40;62.90;;;;;;4062522;29;20048;-59
2022/02/27 03:43:35;;;;;;;12.55;5.90;;;15.40;62.60;;;;;;4062580;29;20048;-60
2022/02/27 03:45:56;;;;;;;12.75;5.47;;;15.40;62.50;;;;;;4062284;29;20420;-60
2022/02/27 03:48:19;;;;;;;10.70;4.88;;;15.40;62.40;;;;;;4060994;29;20454;-60
2022/02/27 03:50:41;;;;;;;13.38;6.07;;;15.40;62.10;;;;;;4062402;29;20561;-60
2022/02/27 03:53:03;;;;;;;12.82;5.43;;;15.40;62.10;;;;;;4062908;29;20135;-60
2022/02/27 03:55:25;;;;;;;13.63;5.88;;;15.30;62.20;;;;;;4062456;29;20055;-60
2022/02/27 03:57:48;;;;;;;9.63;5.40;;;15.30;62.80;;;;;;4051125;29;20056;-59
2022/02/27 04:00:15;;;;;;;12.10;5.78;;;15.30;63.00;;;;;;4046878;29;20056;-59
2022/02/27 04:02:38;;;;;;;14.77;6.10;;;15.40;62.80;;;;;;4032654;29;20053;-59
2022/02/27 04:05:00;;;;;;;12.32;5.47;;;15.60;62.40;;;;;;4047433;29;20107;-59
2022/02/27 04:07:22;;;;;;;12.23;5.38;;;15.70;62.90;;;;;;4056279;29;20107;-59
2022/02/27 04:09:44;;;;;;;10.25;5.38;;;15.70;61.70;;;;;;4062541;29;20489;-60
2022/02/27 04:12:07;;;;;;;9.90;5.35;;;15.80;61.40;;;;;;4062567;29;20052;-59
2022/02/27 04:14:29;;;;;;;11.30;5.35;;;15.80;61.30;;;;;;4048394;29;20090;-60
2022/02/27 04:16:53;;;;;;;10.00;5.80;;;15.80;61.30;;;;;;4052818;29;20056;-59
2022/02/27 04:19:17;;;;;;;11.82;5.47;;;15.70;61.20;;;;;;4062357;29;20205;-59
2022/02/27 04:21:39;;;;;;;9.45;5.20;;;15.70;61.40;;;;;;4062943;29;20056;-60
2022/02/27 04:24:01;;;;;;;14.32;5.78;;;15.70;61.40;;;;;;4065136;29;20059;-59
2022/02/27 04:26:23;;;;;;;15.85;5.90;;;15.70;61.40;;;;;;4061010;29;20108;-59
2022/02/27 04:28:46;;;;;;;13.52;5.40;;;15.60;61.50;;;;;;4050080;29;20044;-62
2022/02/27 04:31:08;;;;;;;10.82;5.15;;;15.60;61.50;;;;;;4050217;29;20056;-60
2022/02/27 04:33:32;;;;;;;15.00;5.57;;;15.60;61.80;;;;;;4050235;29;20072;-61
2022/02/27 04:35:54;;;;;;;9.50;5.30;;;15.50;61.70;;;;;;4050442;29;20131;-61
2022/02/27 04:38:16;;;;;;;10.68;5.28;;;15.50;61.80;;;;;;4065134;29;20044;-58
2022/02/27 04:40:38;;;;;;;11.40;5.18;;;15.40;62.00;;;;;;4064725;29;20047;-60
2022/02/27 04:43:01;;;;;;;8.93;5.00;;;15.40;62.10;;;;;;4064753;29;20493;-59
2022/02/27 04:45:25;;;;;;;9.82;4.93;;;15.40;62.60;;;;;;4064748;29;20520;-60
2022/02/27 04:47:47;;;;;;;10.90;5.10;;;15.50;62.50;;;;;;4048513;29;20056;-60
2022/02/27 04:50:11;;;;;;;9.40;4.97;;;15.50;61.90;;;;;;4048220;29;20112;-60
2022/02/27 04:52:33;;;;;;;8.55;4.60;;;15.60;61.60;;;;;;4049498;29;20052;-60
2022/02/27 04:54:55;;;;;;;9.10;5.10;;;15.60;61.50;;;;;;4049734;29;20061;-60
2022/02/27 04:57:18;;;;;;;10.65;4.28;;;15.60;61.90;;;;;;4062617;29;20079;-59
2022/02/27 04:59:40;;;;;;;6.18;4.63;;;15.60;61.10;;;;;;4064918;29;20530;-59
2022/02/27 05:02:02;;;;;;;10.48;4.75;;;15.60;61.50;;;;;;4063010;29;20684;-60
2022/02/27 05:04:24;;;;;;;12.77;4.72;;;15.50;61.50;;;;;;4060501;29;20055;-60
2022/02/27 05:06:48;;;;;;;11.27;4.88;;;15.50;61.80;;;;;;4065046;29;20083;-61
2022/02/27 05:09:16;;;;;;;10.40;5.50;;;15.50;61.90;;;;;;4064948;29;20521;-61
2022/02/27 05:11:38;;;;;;;18.02;5.72;;;15.50;62.80;;;;;;4064570;29;20134;-60
2022/02/27 05:14:00;;;;;;;9.15;4.90;;;15.50;61.90;;;;;;4049721;29;20063;-60
2022/02/27 05:16:22;;;;;;;9.00;4.70;;;15.50;61.90;;;;;;4049550;29;20060;-59
2022/02/27 05:18:44;;;;;;;12.32;4.93;;;15.50;61.80;;;;;;4048860;29;20056;-60
2022/02/27 05:21:07;;;;;;;12.55;4.57;;;15.50;61.60;;;;;;4049478;29;20052;-60
2022/02/27 05:23:30;;;;;;;11.90;4.78;;;15.60;61.60;;;;;;4063358;29;20460;-60
2022/02/27 05:25:58;;;;;;;8.40;4.75;;;15.50;61.60;;;;;;4064738;29;20064;-60
2022/02/27 05:28:20;;;;;;;11.40;4.50;;;15.50;61.60;;;;;;4064583;29;20060;-59
2022/02/27 05:30:42;;;;;;;9.10;4.50;;;15.50;61.50;;;;;;4064143;29;20665;-60
2022/02/27 05:33:04;;;;;;;13.27;4.97;;;15.50;61.70;;;;;;4052938;29;20431;-60
2022/02/27 05:35:27;;;;;;;11.77;5.00;;;15.50;61.80;;;;;;4054090;29;20836;-60
2022/02/27 05:37:49;;;;;;;9.65;4.65;;;15.60;61.50;;;;;;4048792;29;20095;-60
2022/02/27 05:40:13;;;;;;;10.75;4.28;;;15.70;61.50;;;;;;4049020;29;20083;-60
2022/02/27 05:42:36;;;;;;;13.48;4.70;;;15.70;61.30;;;;;;4058767;29;20131;-60
2022/02/27 05:44:59;;;;;;;9.40;4.35;;;15.70;61.10;;;;;;4064324;29;20135;-59
2022/02/27 05:47:21;;;;;;;9.18;4.45;;;15.70;60.90;;;;;;4063183;29;20087;-60
2022/02/27 05:49:44;;;;;;;10.02;4.22;;;15.70;60.90;;;;;;4064298;29;20060;-59
2022/02/27 05:52:07;;;;;;;9.52;4.38;;;15.60;61.20;;;;;;4057814;29;20525;-59
2022/02/27 05:54:30;;;;;;;7.25;4.65;;;15.60;61.50;;;;;;4034490;29;20049;-59
2022/02/27 05:56:53;;;;;;;11.63;4.53;;;15.60;61.80;;;;;;4061066;29;20121;-60
2022/02/27 05:59:15;;;;;;;12.73;4.70;;;15.60;61.80;;;;;;4048608;29;20048;-59
2022/02/27 06:01:38;;;;;;;12.80;4.13;;;15.60;61.70;;;;;;4053354;29;20115;-60
2022/02/27 06:04:00;;;;;;;11.65;4.75;;;15.70;61.40;;;;;;4062047;29;20569;-59
2022/02/27 06:06:21;;;;;;;8.65;4.70;;;15.70;61.20;;;;;;4048409;29;20139;-59
2022/02/27 06:08:44;;;;;;;9.52;4.78;;;15.80;61.00;;;;;;4048222;29;20059;-59
2022/02/27 06:11:06;;;;;;;7.95;4.40;;;15.90;60.80;;;;;;4048493;29;20412;-59
2022/02/27 06:13:29;;;;;;;11.68;4.00;;;15.80;60.70;;;;;;4048900;29;20502;-59
2022/02/27 06:15:52;;;;;;;10.10;4.40;;;15.90;60.70;;;;;;4048724;29;20059;-59
2022/02/27 06:18:15;;;;;;;8.45;4.35;;;15.90;60.60;;;;;;4048469;29;20112;-59
2022/02/27 06:20:37;;;;;;;11.60;4.75;;;15.90;60.40;;;;;;4051571;29;20059;-59
2022/02/27 06:22:59;;;;;;;9.77;4.15;;;15.80;59.90;;;;;;4045647;29;20056;-59
2022/02/27 06:25:22;;;;;;;9.95;4.43;;;15.80;60.30;;;;;;4046963;29;20055;-59
2022/02/27 06:27:44;;;;;;;8.00;4.80;;;15.70;60.80;;;;;;4048059;29;20407;-58
2022/02/27 06:30:09;;;;;;;7.28;3.78;;;15.70;60.90;;;;;;4047702;29;20485;-59
2022/02/27 06:32:31;;;;;;;11.00;4.75;;;15.80;60.60;;;;;;4059701;29;20048;-60
2022/02/27 06:34:53;;;;;;;9.75;4.07;;;15.90;60.40;;;;;;4063388;29;20407;-59
2022/02/27 06:37:15;;;;;;;7.70;3.75;;;16.00;60.10;;;;;;4063575;29;20047;-59
2022/02/27 06:39:37;;;;;;;9.32;3.95;;;16.10;59.70;;;;;;4063795;29;20052;-60
2022/02/27 06:42:01;;;;;;;7.30;3.90;;;16.20;60.30;;;;;;4061207;29;20066;-59
2022/02/27 06:44:23;;;;;;;6.45;3.92;;;16.20;59.30;;;;;;4063080;29;20056;-59
2022/02/27 06:46:47;;;;;;;10.75;3.70;;;16.20;59.30;;;;;;4063826;29;20044;-60
2022/02/27 06:49:09;;;;;;;7.05;4.20;;;16.10;59.40;;;;;;4062650;29;20048;-60
2022/02/27 06:51:31;;;;;;;9.52;4.07;;;16.10;60.30;;;;;;4054848;29;20068;-59
2022/02/27 06:53:53;;;;;;;7.88;4.30;;;16.20;59.60;;;;;;4047734;29;20482;-59
2022/02/27 06:56:15;;;;;;;9.30;4.35;;;16.20;60.30;;;;;;4047620;29;20056;-60
2022/02/27 06:58:37;;;;;;;11.23;4.55;;;16.20;60.20;;;;;;4033377;29;20057;-60
2022/02/27 07:00:59;;;;;;;9.93;4.53;;;16.20;59.40;;;;;;4053854;29;20059;-60
2022/02/27 07:03:23;;;;;;;9.18;3.90;;;16.20;59.50;;;;;;4063025;29;20082;-59
2022/02/27 07:05:45;;;;;;;8.90;4.05;;;16.10;59.30;;;;;;4062645;29;20048;-60
2022/02/27 07:08:07;;;;;;;8.73;4.22;;;16.10;59.50;;;;;;4063200;29;20059;-59
2022/02/27 07:10:30;;;;;;;9.07;4.00;;;16.00;59.80;;;;;;4046090;29;20111;-60
2022/02/27 07:12:53;;;;;;;8.60;4.22;;;16.10;60.00;;;;;;4047371;29;20064;-59
2022/02/27 07:15:18;;;;;;;11.30;4.25;;;16.10;60.00;;;;;;4047396;29;20049;-60
2022/02/27 07:17:40;;;;;;;8.23;4.20;;;16.20;59.80;;;;;;4053642;29;20063;-60
2022/02/27 07:20:05;;;;;;;10.13;3.85;;;16.30;59.60;;;;;;4062488;29;20138;-60
2022/02/27 07:22:27;;;;;;;9.60;3.55;;;16.30;59.40;;;;;;4062043;29;20052;-60
2022/02/27 07:24:50;;;;;;;10.23;3.83;;;16.40;59.30;;;;;;4063043;29;20059;-60
2022/02/27 07:27:15;;;;;;;10.23;4.20;;;16.40;59.10;;;;;;4062711;29;20064;-59
2022/02/27 07:29:37;;;;;;;8.90;4.03;;;16.40;59.00;;;;;;4048703;29;20104;-59
2022/02/27 07:31:59;;;;;;;7.57;3.47;;;16.30;59.00;;;;;;4050747;29;20062;-59
2022/02/27 07:34:21;;;;;;;9.85;3.67;;;16.20;59.40;;;;;;4062664;29;20108;-59
2022/02/27 07:36:47;;;;;;;6.32;3.60;;;16.20;59.60;;;;;;4062739;29;20415;-60
2022/02/27 07:39:09;;;;;;;7.43;3.70;;;16.10;60.60;;;;;;4062904;29;20060;-60
2022/02/27 07:41:31;;;;;;;10.98;4.28;;;16.00;60.10;;;;;;4050657;29;20052;-60
2022/02/27 07:43:53;;;;;;;7.45;3.60;;;16.00;60.50;;;;;;4047266;29;20116;-60
2022/02/27 07:46:15;;;;;;;9.43;4.00;;;15.90;60.40;;;;;;4047516;29;20060;-60
2022/02/27 07:48:37;;;;;;;12.13;4.28;;;15.90;59.90;;;;;;4047405;29;20082;-60
2022/02/27 07:51:01;;;;;;;13.45;4.47;;;15.90;60.20;;;;;;4048386;29;20494;-60
2022/02/27 07:53:25;;;;;;;8.30;3.80;;;15.90;60.50;;;;;;4047805;29;20052;-60
2022/02/27 07:55:47;;;;;;;10.88;3.83;;;15.90;60.10;;;;;;4047773;29;20131;-61
2022/02/27 07:58:11;;;;;;;7.53;3.25;;;15.90;60.00;;;;;;4048929;29;20092;-60
2022/02/27 08:00:33;;;;;;;7.78;3.90;;;15.80;60.10;;;;;;4059622;29;20053;-60
2022/02/27 08:02:55;;;;;;;9.95;4.05;;;15.80;61.00;;;;;;4065788;29;20051;-60
2022/02/27 08:05:17;;;;;;;11.48;4.57;;;15.80;63.00;;;;;;4065835;29;20072;-59
2022/02/27 08:07:40;;;;;;;10.93;3.63;;;15.90;62.50;;;;;;4065822;29;20055;-60
2022/02/27 08:10:04;;;;;;;10.02;4.13;;;16.10;62.20;;;;;;4059867;29;20463;-60
2022/02/27 08:12:27;;;;;;;7.50;3.63;;;16.20;61.90;;;;;;4050567;29;20076;-60
2022/02/27 08:14:49;;;;;;;7.97;3.47;;;16.30;61.30;;;;;;4050166;29;20120;-60
2022/02/27 08:17:11;;;;;;;9.35;3.58;;;16.30;60.90;;;;;;4049885;29;20064;-60
2022/02/27 08:19:33;;;;;;;7.43;3.60;;;16.40;60.70;;;;;;4050975;29;20072;-60
2022/02/27 08:21:56;;;;;;;9.88;4.00;;;16.50;60.10;;;;;;4058218;29;20677;-59
2022/02/27 08:24:18;;;;;;;7.70;3.42;;;16.60;59.70;;;;;;4059175;29;20055;-59
2022/02/27 08:26:41;;;;;;;7.65;3.75;;;16.70;59.20;;;;;;4057562;29;20060;-60
2022/02/27 08:29:06;;;;;;;8.23;3.28;;;16.80;58.70;;;;;;4065280;29;20056;-60
2022/02/27 08:31:30;;;;;;;8.25;3.60;;;16.90;58.20;;;;;;4065328;29;20815;-59
2022/02/27 08:33:53;;;;;;;10.57;3.95;;;17.00;58.10;;;;;;4063546;29;20075;-59
2022/02/27 08:36:17;;;;;;;7.38;3.40;;;17.10;57.80;;;;;;4065410;29;20051;-59
2022/02/27 08:38:39;;;;;;;8.57;4.13;;;17.20;57.40;;;;;;4071976;29;20075;-59
2022/02/27 08:41:01;;;;;;;6.40;3.50;;;17.20;57.10;;;;;;4062667;29;20070;-59
2022/02/27 08:43:25;;;;;;;8.73;3.65;;;17.20;57.00;;;;;;4052841;29;20554;-60
2022/02/27 08:45:48;;;;;;;6.30;3.47;;;17.20;56.80;;;;;;4057075;29;20052;-59
2022/02/27 08:48:10;;;;;;;9.00;4.25;;;17.10;56.90;;;;;;4064854;29;20063;-59
2022/02/27 08:50:35;;;;;;;8.52;3.60;;;17.00;57.00;;;;;;4064538;29;20083;-59
2022/02/27 08:52:57;;;;;;;9.55;4.13;;;16.90;57.00;;;;;;4065071;29;20059;-59
2022/02/27 08:55:19;;;;;;;8.15;4.40;;;16.80;57.40;;;;;;4065038;29;20052;-59
2022/02/27 08:57:42;;;;;;;6.85;4.00;;;16.70;57.70;;;;;;4065039;29;20139;-59
2022/02/27 09:00:08;;;;;;;8.95;3.50;;;16.60;57.90;;;;;;4064959;29;20055;-58
2022/02/27 09:02:30;;;;;;;7.80;3.65;;;16.60;58.00;;;;;;4063052;29;20763;-59
2022/02/27 09:04:56;;;;;;;10.95;4.05;;;16.60;58.20;;;;;;4049679;29;20559;-59
2022/02/27 09:07:19;;;;;;;11.85;4.03;;;16.60;58.20;;;;;;4049430;29;20053;-59
2022/02/27 09:09:42;;;;;;;8.20;3.47;;;16.60;58.30;;;;;;4050498;29;20044;-59
2022/02/27 09:12:07;;;;;;;9.95;3.50;;;16.60;58.50;;;;;;4060909;29;20068;-60
2022/02/27 09:14:29;;;;;;;5.55;3.63;;;16.60;58.20;;;;;;4065154;29;20063;-60
2022/02/27 09:16:53;;;;;;;6.60;3.60;;;16.60;57.90;;;;;;4058131;29;20514;-60
2022/02/27 09:19:16;;;;;;;6.20;3.80;;;16.60;57.90;;;;;;4048988;29;20075;-61
2022/02/27 09:21:38;;;;;;;9.13;3.65;;;16.60;57.90;;;;;;4049096;29;20143;-61
2022/02/27 09:24:00;;;;;;;10.38;3.53;;;16.60;58.40;;;;;;4034819;29;20057;-59
2022/02/27 09:26:24;;;;;;;6.95;3.05;;;16.60;58.20;;;;;;4048966;29;20052;-59
2022/02/27 09:28:51;;;;;;;5.32;3.22;;;16.50;57.70;;;;;;4049466;29;20059;-59
2022/02/27 09:31:13;;;;;;;7.28;3.50;;;16.50;58.00;;;;;;4049073;29;20087;-59
2022/02/27 09:33:36;;;;;;;7.05;3.80;;;16.50;57.80;;;;;;4054923;29;20123;-59
2022/02/27 09:35:58;;;;;;;6.25;3.88;;;16.50;57.60;;;;;;4064434;29;20426;-59
2022/02/27 09:38:21;;;;;;;8.63;3.60;;;16.60;57.50;;;;;;4064566;29;20391;-59
2022/02/27 09:40:43;;;;;;;7.65;3.63;;;16.80;57.00;;;;;;4062863;29;20048;-59
2022/02/27 09:43:05;;;;;;;8.38;3.20;;;17.40;56.10;;;;;;4050080;29;20529;-59
2022/02/27 09:45:28;;;;;;;5.72;2.75;;;17.90;54.30;;;;;;4059541;29;20128;-59
2022/02/27 09:47:53;;;;;;;5.85;3.42;;;18.40;52.80;;;;;;4048643;29;20136;-59
2022/02/27 09:50:17;;;;;;;9.65;3.60;;;19.10;51.40;;;;;;4048600;29;20087;-59
2022/02/27 09:52:39;;;;;;;8.25;3.92;;;19.70;49.80;;;;;;4048656;29;20610;-59
2022/02/27 09:55:01;;;;;;;6.97;2.97;;;20.20;48.70;;;;;;4061533;29;20070;-58
2022/02/27 09:57:24;;;;;;;10.57;3.72;;;20.50;47.60;;;;;;4063942;29;20469;-59
2022/02/27 09:59:46;;;;;;;7.93;3.58;;;20.80;47.30;;;;;;4064068;29;20111;-59
2022/02/27 10:02:09;;;;;;;6.47;3.38;;;20.90;46.80;;;;;;4049410;29;20487;-60
2022/02/27 10:04:36;;;;;;;5.07;2.97;;;21.10;46.20;;;;;;4063748;29;20494;-60
2022/02/27 10:06:59;;;;;;;9.20;3.00;;;21.10;46.40;;;;;;4057912;29;20104;-59
2022/02/27 10:09:24;;;;;;;4.22;3.10;;;21.10;46.40;;;;;;4048667;29;20139;-59
2022/02/27 10:11:52;;;;;;;6.38;2.90;;;21.00;46.70;;;;;;4048562;29;20094;-59
2022/02/27 10:14:25;;;;;;;10.10;3.33;;;20.80;47.00;;;;;;4048714;29;20148;-59
2022/02/27 10:16:50;;;;;;;8.13;3.38;;;20.50;47.80;;;;;;4053389;29;20139;-61
2022/02/27 10:19:17;;;;;;;5.45;3.10;;;20.30;47.60;;;;;;4063448;29;20055;-60
2022/02/27 10:21:43;;;;;;;10.40;3.60;;;20.00;48.50;;;;;;4061648;29;20059;-59
2022/02/27 10:24:17;;;;;;;6.85;2.63;;;19.80;49.30;;;;;;4049279;29;20395;-58
2022/02/27 10:26:41;;;;;;;8.93;3.28;;;19.70;49.40;;;;;;4038524;29;20063;-61
2022/02/27 10:29:06;;;;;;;6.75;2.97;;;19.60;49.80;;;;;;4047867;29;20052;-59
2022/02/27 10:31:29;;;;;;;6.13;2.97;;;19.60;50.40;;;;;;4048006;29;20495;-59
2022/02/27 10:33:57;;;;;;;4.07;2.72;;;19.60;50.70;;;;;;4057442;29;20051;-60
2022/02/27 10:36:19;;;;;;;7.68;3.00;;;19.50;51.30;;;;;;4063467;29;20111;-58
2022/02/27 10:38:43;;;;;;;6.63;2.63;;;19.50;50.70;;;;;;4063495;29;20478;-58
2022/02/27 10:41:12;;;;;;;5.90;2.85;;;19.50;50.20;;;;;;4063209;29;20068;-59
2022/02/27 10:43:42;;;;;;;7.15;2.95;;;19.40;50.90;;;;;;4060260;29;20056;-59
2022/02/27 10:46:05;;;;;;;5.95;3.30;;;19.50;51.10;;;;;;4053092;29;20487;-59
2022/02/27 10:48:31;;;;;;;7.45;3.28;;;19.60;51.20;;;;;;4047598;29;20542;-58
2022/02/27 10:51:04;;;;;;;6.60;2.78;;;19.70;51.00;;;;;;4060105;29;20431;-59
2022/02/27 10:53:34;;;;;;;7.50;2.97;;;19.70;50.60;;;;;;4048592;29;20053;-60
2022/02/27 10:55:59;;;;;;;8.55;3.10;;;19.80;50.40;;;;;;4047490;29;20067;-59
2022/02/27 10:58:23;;;;;;;6.53;3.25;;;19.90;50.30;;;;;;4047839;29;20076;-59
2022/02/27 11:00:45;;;;;;;8.65;3.45;;;19.90;50.00;;;;;;4047710;29;20052;-59
2022/02/27 11:03:09;;;;;;;6.93;2.80;;;19.90;49.80;;;;;;4048215;29;20070;-59
2022/02/27 11:05:33;;;;;;;4.78;2.80;;;19.90;50.00;;;;;;4046585;29;20059;-59
2022/02/27 11:07:57;;;;;;;6.80;2.90;;;20.00;49.80;;;;;;4046627;29;20052;-58
2022/02/27 11:10:20;;;;;;;5.32;3.08;;;20.00;49.60;;;;;;4047852;29;20055;-59
2022/02/27 11:12:43;;;;;;;6.03;3.10;;;20.00;49.70;;;;;;4052182;29;20108;-59
2022/02/27 11:15:10;;;;;;;11.10;3.63;;;19.90;49.00;;;;;;4062613;29;20154;-60
2022/02/27 11:17:32;;;;;;;8.63;3.60;;;19.90;49.20;;;;;;4060981;29;20062;-61
2022/02/27 11:19:56;;;;;;;7.72;3.30;;;19.90;49.40;;;;;;4061991;29;20060;-60
2022/02/27 11:22:20;;;;;;;7.15;3.40;;;19.90;49.80;;;;;;4062952;29;20052;-59
2022/02/27 11:24:43;;;;;;;7.90;3.60;;;19.80;49.80;;;;;;4062730;29;20051;-59
2022/02/27 11:27:06;;;;;;;7.13;3.17;;;19.80;49.70;;;;;;4063062;29;20052;-60
2022/02/27 11:29:29;;;;;;;7.47;3.13;;;19.80;50.00;;;;;;4062724;29;20051;-60
2022/02/27 11:31:53;;;;;;;7.75;3.50;;;19.80;50.00;;;;;;4062665;29;20056;-59
2022/02/27 11:34:17;;;;;;;9.82;3.95;;;19.80;50.00;;;;;;4062590;29;20126;-59
2022/02/27 11:36:39;;;;;;;6.35;3.17;;;19.90;50.60;;;;;;4063052;29;20090;-59
2022/02/27 11:39:03;;;;;;;7.18;3.20;;;20.00;50.50;;;;;;4050643;29;20057;-59
2022/02/27 11:41:26;;;;;;;9.65;3.00;;;20.10;49.40;;;;;;4047582;29;20190;-59
2022/02/27 11:43:52;;;;;;;9.45;3.67;;;20.30;49.40;;;;;;4047265;29;20069;-59
2022/02/27 11:46:15;;;;;;;8.40;3.22;;;20.40;49.10;;;;;;4058318;29;20490;-59
2022/02/27 11:49:02;;;;;;;6.07;3.20;;;20.60;48.70;;;;;;4060677;29;20087;-59
2022/02/27 11:51:48;;;;;;;10.00;3.03;;;20.70;48.10;;;;;;4062465;29;20569;-58
2022/02/27 11:54:13;;;;;;;8.88;3.65;;;20.80;47.90;;;;;;4062644;29;20052;-59
2022/02/27 11:56:36;;;;;;;6.85;3.08;;;20.90;47.90;;;;;;4062650;29;20056;-58
2022/02/27 11:59:00;;;;;;;6.53;3.50;;;20.90;47.90;;;;;;4050485;29;20139;-59
2022/02/27 12:01:36;;;;;;;6.57;3.08;;;20.90;47.60;;;;;;4053053;29;20049;-59
2022/02/27 12:04:23;;;;;;;4.38;2.80;;;20.80;48.00;;;;;;4062242;29;20056;-59
2022/02/27 12:07:05;;;;;;;6.75;3.42;;;20.70;47.90;;;;;;4056503;29;20075;-58
2022/02/27 12:09:27;;;;;;;7.82;3.47;;;20.60;48.70;;;;;;4056686;29;20076;-59
2022/02/27 12:11:49;;;;;;;7.13;4.10;;;20.50;48.60;;;;;;4047870;29;20056;-59
2022/02/27 12:14:13;;;;;;;6.10;3.60;;;20.40;48.80;;;;;;4062604;29;20147;-60
2022/02/27 12:16:37;;;;;;;7.45;3.28;;;20.30;49.20;;;;;;4047507;29;20448;-59
2022/02/27 12:18:59;;;;;;;7.57;3.90;;;20.20;49.40;;;;;;4062330;29;20048;-59
2022/02/27 12:21:35;;;;;;;8.43;3.55;;;20.10;49.20;;;;;;4062243;29;20783;-60
2022/02/27 12:24:07;;;;;;;4.40;3.40;;;20.00;49.40;;;;;;4048056;29;20080;-60